sensor_id;sensor_type;location;lat;lon;timestamp;P1;durP1;ratioP1;P2;durP2;ratioP2
45011;SDS011;63444;48.148;11.542;2023-06-14T00:01:23;4.27;;;3.27;;
45011;SDS011;63444;48.148;11.542;2023-06-14T00:03:49;4.60;;;3.27;;
45011;SDS011;63444;48.148;11.542;2023-06-14T00:06:14;4.20;;;3.40;;
45011;SDS011;63444;48.148;11.542;2023-06-14T00:08:40;3.80;;;2.97;;
45011;SDS011;63444;48.148;11.542;2023-06-14T00:11:06;4.20;;;3.40;;
45011;SDS011;63444;48.148;11.542;2023-06-14T00:13:32;5.77;;;3.33;;
45011;SDS011;63444;48.148;11.542;2023-06-14T00:15:58;3.27;;;2.90;;
45011;SDS011;63444;48.148;11.542;2023-06-14T00:18:24;5.37;;;3.00;;
45011;SDS011;63444;48.148;11.542;2023-06-14T00:20:50;4.50;;;3.27;;
45011;SDS011;63444;48.148;11.542;2023-06-14T00:23:16;4.60;;;3.20;;
45011;SDS011;63444;48.148;11.542;2023-06-14T00:25:42;3.93;;;3.40;;
45011;SDS011;63444;48.148;11.542;2023-06-14T00:28:08;4.03;;;3.13;;
45011;SDS011;63444;48.148;11.542;2023-06-14T00:30:34;4.63;;;3.10;;
45011;SDS011;63444;48.148;11.542;2023-06-14T00:32:59;3.40;;;3.10;;
45011;SDS011;63444;48.148;11.542;2023-06-14T00:35:25;3.90;;;2.87;;
45011;SDS011;63444;48.148;11.542;2023-06-14T00:37:51;4.20;;;2.97;;
45011;SDS011;63444;48.148;11.542;2023-06-14T00:40:16;4.50;;;2.90;;
45011;SDS011;63444;48.148;11.542;2023-06-14T00:42:42;4.30;;;3.20;;
45011;SDS011;63444;48.148;11.542;2023-06-14T00:45:08;3.47;;;2.93;;
45011;SDS011;63444;48.148;11.542;2023-06-14T00:47:34;3.37;;;3.00;;
45011;SDS011;63444;48.148;11.542;2023-06-14T00:50:02;3.83;;;3.37;;
45011;SDS011;63444;48.148;11.542;2023-06-14T00:52:32;4.60;;;3.37;;
45011;SDS011;63444;48.148;11.542;2023-06-14T00:54:59;3.27;;;2.90;;
45011;SDS011;63444;48.148;11.542;2023-06-14T00:57:25;3.97;;;3.23;;
45011;SDS011;63444;48.148;11.542;2023-06-14T00:59:52;5.37;;;3.10;;
45011;SDS011;63444;48.148;11.542;2023-06-14T01:02:17;3.67;;;3.20;;
45011;SDS011;63444;48.148;11.542;2023-06-14T01:04:44;3.17;;;2.87;;
45011;SDS011;63444;48.148;11.542;2023-06-14T01:09:59;3.57;;;3.27;;
45011;SDS011;63444;48.148;11.542;2023-06-14T01:13:11;3.47;;;3.17;;
45011;SDS011;63444;48.148;11.542;2023-06-14T01:15:37;4.53;;;3.30;;
45011;SDS011;63444;48.148;11.542;2023-06-14T01:18:04;5.30;;;3.50;;
45011;SDS011;63444;48.148;11.542;2023-06-14T01:20:33;4.70;;;3.40;;
45011;SDS011;63444;48.148;11.542;2023-06-14T01:23:02;4.57;;;3.50;;
45011;SDS011;63444;48.148;11.542;2023-06-14T01:25:28;4.80;;;3.43;;
45011;SDS011;63444;48.148;11.542;2023-06-14T01:28:03;3.63;;;3.00;;
45011;SDS011;63444;48.148;11.542;2023-06-14T01:30:35;3.57;;;3.17;;
45011;SDS011;63444;48.148;11.542;2023-06-14T01:33:02;4.33;;;3.50;;
45011;SDS011;63444;48.148;11.542;2023-06-14T01:35:29;4.03;;;3.23;;
45011;SDS011;63444;48.148;11.542;2023-06-14T01:37:55;3.50;;;3.20;;
45011;SDS011;63444;48.148;11.542;2023-06-14T01:40:21;4.90;;;3.43;;
45011;SDS011;63444;48.148;11.542;2023-06-14T01:42:47;4.10;;;3.07;;
45011;SDS011;63444;48.148;11.542;2023-06-14T01:45:15;4.17;;;3.53;;
45011;SDS011;63444;48.148;11.542;2023-06-14T01:47:41;4.07;;;3.10;;
45011;SDS011;63444;48.148;11.542;2023-06-14T01:50:08;3.50;;;3.03;;
45011;SDS011;63444;48.148;11.542;2023-06-14T01:52:34;4.13;;;3.40;;
45011;SDS011;63444;48.148;11.542;2023-06-14T01:55:00;3.83;;;3.00;;
45011;SDS011;63444;48.148;11.542;2023-06-14T01:57:28;3.60;;;3.10;;
45011;SDS011;63444;48.148;11.542;2023-06-14T01:59:54;3.70;;;3.33;;
45011;SDS011;63444;48.148;11.542;2023-06-14T02:02:20;3.93;;;3.20;;
45011;SDS011;63444;48.148;11.542;2023-06-14T02:04:45;3.60;;;2.80;;
45011;SDS011;63444;48.148;11.542;2023-06-14T02:07:12;3.57;;;3.23;;
45011;SDS011;63444;48.148;11.542;2023-06-14T02:09:38;5.13;;;3.30;;
45011;SDS011;63444;48.148;11.542;2023-06-14T02:12:03;4.97;;;3.03;;
45011;SDS011;63444;48.148;11.542;2023-06-14T02:14:29;3.30;;;3.00;;
45011;SDS011;63444;48.148;11.542;2023-06-14T02:16:55;3.37;;;3.00;;
45011;SDS011;63444;48.148;11.542;2023-06-14T02:19:21;3.60;;;3.30;;
45011;SDS011;63444;48.148;11.542;2023-06-14T02:21:47;3.50;;;3.20;;
45011;SDS011;63444;48.148;11.542;2023-06-14T02:24:13;3.23;;;2.80;;
45011;SDS011;63444;48.148;11.542;2023-06-14T02:26:38;4.27;;;2.87;;
45011;SDS011;63444;48.148;11.542;2023-06-14T02:29:05;3.53;;;3.23;;
45011;SDS011;63444;48.148;11.542;2023-06-14T02:31:31;3.63;;;2.97;;
45011;SDS011;63444;48.148;11.542;2023-06-14T02:33:57;3.83;;;3.37;;
45011;SDS011;63444;48.148;11.542;2023-06-14T02:36:23;3.93;;;2.97;;
45011;SDS011;63444;48.148;11.542;2023-06-14T02:38:49;3.43;;;3.03;;
45011;SDS011;63444;48.148;11.542;2023-06-14T02:41:14;3.97;;;3.23;;
45011;SDS011;63444;48.148;11.542;2023-06-14T02:43:40;5.53;;;3.50;;
45011;SDS011;63444;48.148;11.542;2023-06-14T02:46:05;3.70;;;3.13;;
45011;SDS011;63444;48.148;11.542;2023-06-14T02:48:32;3.40;;;3.10;;
45011;SDS011;63444;48.148;11.542;2023-06-14T02:50:57;3.50;;;3.20;;
45011;SDS011;63444;48.148;11.542;2023-06-14T02:53:23;4.53;;;3.20;;
45011;SDS011;63444;48.148;11.542;2023-06-14T02:55:48;3.40;;;3.10;;
45011;SDS011;63444;48.148;11.542;2023-06-14T02:58:14;4.03;;;3.40;;
45011;SDS011;63444;48.148;11.542;2023-06-14T03:00:41;5.60;;;3.20;;
45011;SDS011;63444;48.148;11.542;2023-06-14T03:03:07;5.40;;;3.10;;
45011;SDS011;63444;48.148;11.542;2023-06-14T03:05:45;3.33;;;3.00;;
45011;SDS011;63444;48.148;11.542;2023-06-14T03:08:12;4.27;;;3.20;;
45011;SDS011;63444;48.148;11.542;2023-06-14T03:10:45;3.87;;;3.40;;
45011;SDS011;63444;48.148;11.542;2023-06-14T03:13:11;6.07;;;3.47;;
45011;SDS011;63444;48.148;11.542;2023-06-14T03:15:46;5.73;;;3.40;;
45011;SDS011;63444;48.148;11.542;2023-06-14T03:18:15;3.63;;;3.20;;
45011;SDS011;63444;48.148;11.542;2023-06-14T03:20:41;9.10;;;3.30;;
45011;SDS011;63444;48.148;11.542;2023-06-14T03:23:08;5.37;;;3.20;;
45011;SDS011;63444;48.148;11.542;2023-06-14T03:25:35;5.23;;;3.20;;
45011;SDS011;63444;48.148;11.542;2023-06-14T03:28:03;5.63;;;3.50;;
45011;SDS011;63444;48.148;11.542;2023-06-14T03:30:31;4.10;;;3.50;;
45011;SDS011;63444;48.148;11.542;2023-06-14T03:32:57;4.13;;;3.10;;
45011;SDS011;63444;48.148;11.542;2023-06-14T03:35:26;5.17;;;3.30;;
45011;SDS011;63444;48.148;11.542;2023-06-14T03:37:53;5.57;;;3.70;;
45011;SDS011;63444;48.148;11.542;2023-06-14T03:40:20;9.07;;;3.90;;
45011;SDS011;63444;48.148;11.542;2023-06-14T03:42:46;6.77;;;3.60;;
45011;SDS011;63444;48.148;11.542;2023-06-14T03:45:12;3.80;;;3.40;;
45011;SDS011;63444;48.148;11.542;2023-06-14T03:47:37;6.50;;;3.77;;
45011;SDS011;63444;48.148;11.542;2023-06-14T03:50:03;5.50;;;3.40;;
45011;SDS011;63444;48.148;11.542;2023-06-14T03:52:30;4.70;;;3.60;;
45011;SDS011;63444;48.148;11.542;2023-06-14T03:54:57;5.10;;;3.20;;
45011;SDS011;63444;48.148;11.542;2023-06-14T03:57:25;3.70;;;3.13;;
45011;SDS011;63444;48.148;11.542;2023-06-14T03:59:51;5.90;;;3.20;;
45011;SDS011;63444;48.148;11.542;2023-06-14T04:02:16;3.67;;;3.20;;
45011;SDS011;63444;48.148;11.542;2023-06-14T04:04:43;3.70;;;3.20;;
45011;SDS011;63444;48.148;11.542;2023-06-14T04:07:10;3.80;;;3.43;;
45011;SDS011;63444;48.148;11.542;2023-06-14T04:09:37;4.70;;;3.20;;
45011;SDS011;63444;48.148;11.542;2023-06-14T04:12:03;5.80;;;3.40;;
45011;SDS011;63444;48.148;11.542;2023-06-14T04:14:29;4.03;;;3.67;;
45011;SDS011;63444;48.148;11.542;2023-06-14T04:16:55;3.53;;;3.23;;
45011;SDS011;63444;48.148;11.542;2023-06-14T04:19:21;4.13;;;3.30;;
45011;SDS011;63444;48.148;11.542;2023-06-14T04:21:47;4.73;;;3.63;;
45011;SDS011;63444;48.148;11.542;2023-06-14T04:24:12;4.07;;;3.40;;
45011;SDS011;63444;48.148;11.542;2023-06-14T04:26:42;3.47;;;3.17;;
45011;SDS011;63444;48.148;11.542;2023-06-14T04:29:10;5.93;;;3.40;;
45011;SDS011;63444;48.148;11.542;2023-06-14T04:31:39;4.70;;;3.43;;
45011;SDS011;63444;48.148;11.542;2023-06-14T04:34:05;7.73;;;3.40;;
45011;SDS011;63444;48.148;11.542;2023-06-14T04:36:34;7.57;;;3.83;;
45011;SDS011;63444;48.148;11.542;2023-06-14T04:39:02;5.90;;;3.97;;
45011;SDS011;63444;48.148;11.542;2023-06-14T04:41:28;4.00;;;3.33;;
45011;SDS011;63444;48.148;11.542;2023-06-14T04:43:57;5.70;;;3.40;;
45011;SDS011;63444;48.148;11.542;2023-06-14T04:46:26;5.00;;;3.43;;
45011;SDS011;63444;48.148;11.542;2023-06-14T04:48:53;3.90;;;3.30;;
45011;SDS011;63444;48.148;11.542;2023-06-14T04:51:19;4.67;;;3.40;;
45011;SDS011;63444;48.148;11.542;2023-06-14T04:53:47;4.27;;;3.37;;
45011;SDS011;63444;48.148;11.542;2023-06-14T04:56:14;4.40;;;3.53;;
45011;SDS011;63444;48.148;11.542;2023-06-14T04:58:40;4.90;;;3.67;;
45011;SDS011;63444;48.148;11.542;2023-06-14T05:01:05;8.53;;;3.73;;
45011;SDS011;63444;48.148;11.542;2023-06-14T05:03:34;5.70;;;3.30;;
45011;SDS011;63444;48.148;11.542;2023-06-14T05:05:59;4.77;;;3.20;;
45011;SDS011;63444;48.148;11.542;2023-06-14T05:08:25;7.43;;;3.57;;
45011;SDS011;63444;48.148;11.542;2023-06-14T05:10:51;8.27;;;3.50;;
45011;SDS011;63444;48.148;11.542;2023-06-14T05:13:18;5.97;;;3.40;;
45011;SDS011;63444;48.148;11.542;2023-06-14T05:15:43;5.63;;;3.60;;
45011;SDS011;63444;48.148;11.542;2023-06-14T05:18:09;5.00;;;3.40;;
45011;SDS011;63444;48.148;11.542;2023-06-14T05:20:35;3.90;;;3.50;;
45011;SDS011;63444;48.148;11.542;2023-06-14T05:23:02;5.93;;;3.70;;
45011;SDS011;63444;48.148;11.542;2023-06-14T05:25:28;5.50;;;3.73;;
45011;SDS011;63444;48.148;11.542;2023-06-14T05:27:53;5.83;;;3.70;;
45011;SDS011;63444;48.148;11.542;2023-06-14T05:30:19;5.40;;;3.10;;
45011;SDS011;63444;48.148;11.542;2023-06-14T05:32:45;8.30;;;3.53;;
45011;SDS011;63444;48.148;11.542;2023-06-14T05:35:10;4.80;;;2.87;;
45011;SDS011;63444;48.148;11.542;2023-06-14T05:37:36;5.67;;;3.27;;
45011;SDS011;63444;48.148;11.542;2023-06-14T05:40:02;4.20;;;3.30;;
45011;SDS011;63444;48.148;11.542;2023-06-14T05:42:32;4.23;;;3.40;;
45011;SDS011;63444;48.148;11.542;2023-06-14T05:44:58;4.97;;;3.23;;
45011;SDS011;63444;48.148;11.542;2023-06-14T05:47:23;3.30;;;3.00;;
45011;SDS011;63444;48.148;11.542;2023-06-14T05:49:50;3.40;;;3.10;;
45011;SDS011;63444;48.148;11.542;2023-06-14T05:52:16;5.20;;;2.90;;
45011;SDS011;63444;48.148;11.542;2023-06-14T05:54:41;5.63;;;3.53;;
45011;SDS011;63444;48.148;11.542;2023-06-14T05:57:07;5.30;;;3.53;;
45011;SDS011;63444;48.148;11.542;2023-06-14T05:59:32;4.03;;;3.10;;
45011;SDS011;63444;48.148;11.542;2023-06-14T06:01:58;4.30;;;3.05;;
45011;SDS011;63444;48.148;11.542;2023-06-14T06:04:24;4.90;;;3.03;;
45011;SDS011;63444;48.148;11.542;2023-06-14T06:06:50;4.20;;;2.92;;
45011;SDS011;63444;48.148;11.542;2023-06-14T06:09:16;4.50;;;2.95;;
45011;SDS011;63444;48.148;11.542;2023-06-14T06:11:42;3.45;;;2.95;;
45011;SDS011;63444;48.148;11.542;2023-06-14T06:14:07;5.63;;;3.10;;
45011;SDS011;63444;48.148;11.542;2023-06-14T06:16:33;4.03;;;2.90;;
45011;SDS011;63444;48.148;11.542;2023-06-14T06:18:58;3.85;;;3.08;;
45011;SDS011;63444;48.148;11.542;2023-06-14T06:21:24;4.90;;;3.05;;
45011;SDS011;63444;48.148;11.542;2023-06-14T06:23:49;6.88;;;3.10;;
45011;SDS011;63444;48.148;11.542;2023-06-14T06:26:15;3.08;;;2.30;;
45011;SDS011;63444;48.148;11.542;2023-06-14T06:28:42;3.97;;;2.60;;
45011;SDS011;63444;48.148;11.542;2023-06-14T06:31:07;3.90;;;2.55;;
45011;SDS011;63444;48.148;11.542;2023-06-14T06:33:33;3.95;;;2.65;;
45011;SDS011;63444;48.148;11.542;2023-06-14T06:35:58;4.80;;;2.85;;
45011;SDS011;63444;48.148;11.542;2023-06-14T06:38:24;4.72;;;2.70;;
45011;SDS011;63444;48.148;11.542;2023-06-14T06:40:50;8.07;;;2.60;;
45011;SDS011;63444;48.148;11.542;2023-06-14T06:43:15;7.30;;;2.85;;
45011;SDS011;63444;48.148;11.542;2023-06-14T06:45:42;4.88;;;2.60;;
45011;SDS011;63444;48.148;11.542;2023-06-14T06:48:08;4.63;;;2.65;;
45011;SDS011;63444;48.148;11.542;2023-06-14T06:50:37;7.13;;;2.90;;
45011;SDS011;63444;48.148;11.542;2023-06-14T06:53:03;6.68;;;3.00;;
45011;SDS011;63444;48.148;11.542;2023-06-14T06:55:29;3.47;;;2.90;;
45011;SDS011;63444;48.148;11.542;2023-06-14T06:57:55;4.15;;;2.85;;
45011;SDS011;63444;48.148;11.542;2023-06-14T07:00:20;8.10;;;3.15;;
45011;SDS011;63444;48.148;11.542;2023-06-14T07:02:46;5.88;;;2.90;;
45011;SDS011;63444;48.148;11.542;2023-06-14T07:05:12;5.63;;;3.25;;
45011;SDS011;63444;48.148;11.542;2023-06-14T07:07:38;3.83;;;2.63;;
45011;SDS011;63444;48.148;11.542;2023-06-14T07:10:04;4.95;;;3.05;;
45011;SDS011;63444;48.148;11.542;2023-06-14T07:12:33;5.47;;;3.17;;
45011;SDS011;63444;48.148;11.542;2023-06-14T07:15:01;5.05;;;3.40;;
45011;SDS011;63444;48.148;11.542;2023-06-14T07:17:26;8.65;;;3.05;;
45011;SDS011;63444;48.148;11.542;2023-06-14T07:19:52;4.47;;;3.05;;
45011;SDS011;63444;48.148;11.542;2023-06-14T07:22:18;3.92;;;2.65;;
45011;SDS011;63444;48.148;11.542;2023-06-14T07:24:44;4.95;;;3.47;;
45011;SDS011;63444;48.148;11.542;2023-06-14T07:27:10;5.22;;;3.10;;
45011;SDS011;63444;48.148;11.542;2023-06-14T07:29:38;3.55;;;2.50;;
45011;SDS011;63444;48.148;11.542;2023-06-14T07:32:05;5.93;;;2.63;;
45011;SDS011;63444;48.148;11.542;2023-06-14T07:34:31;3.72;;;3.05;;
45011;SDS011;63444;48.148;11.542;2023-06-14T07:36:57;7.15;;;2.97;;
45011;SDS011;63444;48.148;11.542;2023-06-14T07:39:22;2.97;;;2.50;;
45011;SDS011;63444;48.148;11.542;2023-06-14T07:41:48;3.47;;;2.50;;
45011;SDS011;63444;48.148;11.542;2023-06-14T07:44:14;4.82;;;2.83;;
45011;SDS011;63444;48.148;11.542;2023-06-14T07:46:40;2.92;;;2.55;;
45011;SDS011;63444;48.148;11.542;2023-06-14T07:49:06;4.25;;;2.67;;
45011;SDS011;63444;48.148;11.542;2023-06-14T07:51:33;11.60;;;3.20;;
45011;SDS011;63444;48.148;11.542;2023-06-14T07:53:59;5.35;;;2.75;;
45011;SDS011;63444;48.148;11.542;2023-06-14T07:56:26;4.63;;;2.55;;
45011;SDS011;63444;48.148;11.542;2023-06-14T07:58:51;4.30;;;2.75;;
45011;SDS011;63444;48.148;11.542;2023-06-14T08:01:17;8.30;;;2.63;;
45011;SDS011;63444;48.148;11.542;2023-06-14T08:03:45;3.10;;;2.63;;
45011;SDS011;63444;48.148;11.542;2023-06-14T08:06:11;4.28;;;2.60;;
45011;SDS011;63444;48.148;11.542;2023-06-14T08:08:36;2.70;;;2.20;;
45011;SDS011;63444;48.148;11.542;2023-06-14T08:11:03;3.95;;;2.50;;
45011;SDS011;63444;48.148;11.542;2023-06-14T08:13:29;4.38;;;2.83;;
45011;SDS011;63444;48.148;11.542;2023-06-14T08:15:55;2.92;;;2.53;;
45011;SDS011;63444;48.148;11.542;2023-06-14T08:18:22;3.85;;;2.60;;
45011;SDS011;63444;48.148;11.542;2023-06-14T08:20:47;6.65;;;2.60;;
45011;SDS011;63444;48.148;11.542;2023-06-14T08:23:13;3.45;;;2.47;;
45011;SDS011;63444;48.148;11.542;2023-06-14T08:25:39;2.50;;;2.20;;
45011;SDS011;63444;48.148;11.542;2023-06-14T08:28:06;5.93;;;2.65;;
45011;SDS011;63444;48.148;11.542;2023-06-14T08:30:31;4.22;;;2.35;;
45011;SDS011;63444;48.148;11.542;2023-06-14T08:32:57;3.00;;;2.17;;
45011;SDS011;63444;48.148;11.542;2023-06-14T08:35:22;2.72;;;2.40;;
45011;SDS011;63444;48.148;11.542;2023-06-14T08:37:48;2.83;;;2.35;;
45011;SDS011;63444;48.148;11.542;2023-06-14T08:40:21;4.40;;;2.63;;
45011;SDS011;63444;48.148;11.542;2023-06-14T08:42:50;5.90;;;2.60;;
45011;SDS011;63444;48.148;11.542;2023-06-14T08:45:18;2.70;;;2.30;;
45011;SDS011;63444;48.148;11.542;2023-06-14T08:47:51;2.70;;;2.30;;
45011;SDS011;63444;48.148;11.542;2023-06-14T08:50:22;6.18;;;2.45;;
45011;SDS011;63444;48.148;11.542;2023-06-14T08:52:51;8.50;;;2.55;;
45011;SDS011;63444;48.148;11.542;2023-06-14T08:55:19;3.17;;;2.30;;
45011;SDS011;63444;48.148;11.542;2023-06-14T08:57:50;2.42;;;2.22;;
45011;SDS011;63444;48.148;11.542;2023-06-14T09:00:18;5.97;;;2.75;;
45011;SDS011;63444;48.148;11.542;2023-06-14T09:02:46;2.88;;;2.47;;
45011;SDS011;63444;48.148;11.542;2023-06-14T09:05:12;2.78;;;2.53;;
45011;SDS011;63444;48.148;11.542;2023-06-14T09:07:39;3.45;;;2.20;;
45011;SDS011;63444;48.148;11.542;2023-06-14T09:10:07;4.35;;;2.80;;
45011;SDS011;63444;48.148;11.542;2023-06-14T09:12:35;2.97;;;2.20;;
45011;SDS011;63444;48.148;11.542;2023-06-14T09:15:01;5.75;;;2.13;;
45011;SDS011;63444;48.148;11.542;2023-06-14T09:17:32;2.78;;;2.20;;
45011;SDS011;63444;48.148;11.542;2023-06-14T09:19:59;3.92;;;2.45;;
45011;SDS011;63444;48.148;11.542;2023-06-14T09:22:25;5.03;;;2.70;;
45011;SDS011;63444;48.148;11.542;2023-06-14T09:24:53;4.72;;;2.42;;
45011;SDS011;63444;48.148;11.542;2023-06-14T09:27:19;6.63;;;2.78;;
45011;SDS011;63444;48.148;11.542;2023-06-14T09:29:44;2.65;;;2.42;;
45011;SDS011;63444;48.148;11.542;2023-06-14T09:32:10;4.03;;;2.60;;
45011;SDS011;63444;48.148;11.542;2023-06-14T09:34:36;8.70;;;2.90;;
45011;SDS011;63444;48.148;11.542;2023-06-14T09:37:02;3.35;;;2.50;;
45011;SDS011;63444;48.148;11.542;2023-06-14T09:39:27;4.78;;;2.90;;
45011;SDS011;63444;48.148;11.542;2023-06-14T09:41:53;4.18;;;2.47;;
45011;SDS011;63444;48.148;11.542;2023-06-14T09:44:18;3.72;;;2.60;;
45011;SDS011;63444;48.148;11.542;2023-06-14T09:46:45;4.97;;;2.67;;
45011;SDS011;63444;48.148;11.542;2023-06-14T09:49:11;4.15;;;3.00;;
45011;SDS011;63444;48.148;11.542;2023-06-14T09:51:42;4.70;;;2.70;;
45011;SDS011;63444;48.148;11.542;2023-06-14T09:54:13;4.43;;;2.30;;
45011;SDS011;63444;48.148;11.542;2023-06-14T09:56:41;3.25;;;2.80;;
45011;SDS011;63444;48.148;11.542;2023-06-14T09:59:10;4.15;;;2.97;;
45011;SDS011;63444;48.148;11.542;2023-06-14T10:01:40;4.80;;;2.42;;
45011;SDS011;63444;48.148;11.542;2023-06-14T10:04:07;6.43;;;2.85;;
45011;SDS011;63444;48.148;11.542;2023-06-14T10:06:36;5.07;;;2.75;;
45011;SDS011;63444;48.148;11.542;2023-06-14T10:09:03;4.30;;;2.55;;
45011;SDS011;63444;48.148;11.542;2023-06-14T10:11:31;5.95;;;2.97;;
45011;SDS011;63444;48.148;11.542;2023-06-14T10:13:57;6.78;;;3.30;;
45011;SDS011;63444;48.148;11.542;2023-06-14T10:17:06;3.33;;;2.42;;
45011;SDS011;63444;48.148;11.542;2023-06-14T10:19:25;6.40;;;3.08;;
45011;SDS011;63444;48.148;11.542;2023-06-14T10:22:01;6.55;;;2.83;;
45011;SDS011;63444;48.148;11.542;2023-06-14T10:24:33;3.28;;;2.95;;
45011;SDS011;63444;48.148;11.542;2023-06-14T10:27:13;3.40;;;2.45;;
45011;SDS011;63444;48.148;11.542;2023-06-14T10:32:17;3.25;;;2.95;;
45011;SDS011;63444;48.148;11.542;2023-06-14T10:34:44;5.65;;;3.08;;
45011;SDS011;63444;48.148;11.542;2023-06-14T10:37:13;4.53;;;3.13;;
45011;SDS011;63444;48.148;11.542;2023-06-14T10:39:45;3.75;;;3.20;;
45011;SDS011;63444;48.148;11.542;2023-06-14T10:42:12;4.22;;;3.00;;
45011;SDS011;63444;48.148;11.542;2023-06-14T10:44:38;5.53;;;2.88;;
45011;SDS011;63444;48.148;11.542;2023-06-14T10:47:09;2.67;;;2.40;;
45011;SDS011;63444;48.148;11.542;2023-06-14T10:49:49;5.55;;;3.08;;
45011;SDS011;63444;48.148;11.542;2023-06-14T10:52:17;8.20;;;2.92;;
45011;SDS011;63444;48.148;11.542;2023-06-14T10:54:55;5.72;;;2.80;;
45011;SDS011;63444;48.148;11.542;2023-06-14T10:57:20;5.65;;;3.00;;
45011;SDS011;63444;48.148;11.542;2023-06-14T10:59:46;4.80;;;2.97;;
45011;SDS011;63444;48.148;11.542;2023-06-14T11:02:20;3.92;;;2.85;;
45011;SDS011;63444;48.148;11.542;2023-06-14T11:05:11;5.15;;;2.90;;
45011;SDS011;63444;48.148;11.542;2023-06-14T11:13:04;4.40;;;2.72;;
45011;SDS011;63444;48.148;11.542;2023-06-14T11:15:31;5.30;;;3.20;;
45011;SDS011;63444;48.148;11.542;2023-06-14T11:18:00;6.15;;;2.60;;
45011;SDS011;63444;48.148;11.542;2023-06-14T11:20:30;4.40;;;2.80;;
45011;SDS011;63444;48.148;11.542;2023-06-14T11:22:56;3.90;;;2.95;;
45011;SDS011;63444;48.148;11.542;2023-06-14T11:25:24;3.85;;;2.60;;
45011;SDS011;63444;48.148;11.542;2023-06-14T11:27:51;4.55;;;2.80;;
45011;SDS011;63444;48.148;11.542;2023-06-14T11:30:17;7.85;;;3.00;;
45011;SDS011;63444;48.148;11.542;2023-06-14T11:32:49;3.85;;;2.80;;
45011;SDS011;63444;48.148;11.542;2023-06-14T11:35:16;6.38;;;2.92;;
45011;SDS011;63444;48.148;11.542;2023-06-14T11:37:43;3.88;;;2.70;;
45011;SDS011;63444;48.148;11.542;2023-06-14T11:40:12;3.38;;;2.88;;
45011;SDS011;63444;48.148;11.542;2023-06-14T11:42:39;6.63;;;2.72;;
45011;SDS011;63444;48.148;11.542;2023-06-14T11:45:08;3.97;;;2.90;;
45011;SDS011;63444;48.148;11.542;2023-06-14T11:47:36;7.53;;;2.80;;
45011;SDS011;63444;48.148;11.542;2023-06-14T11:50:03;3.85;;;2.63;;
45011;SDS011;63444;48.148;11.542;2023-06-14T11:52:30;3.78;;;2.70;;
45011;SDS011;63444;48.148;11.542;2023-06-14T11:54:57;5.55;;;3.20;;
45011;SDS011;63444;48.148;11.542;2023-06-14T11:57:23;4.45;;;2.90;;
45011;SDS011;63444;48.148;11.542;2023-06-14T11:59:49;6.55;;;2.80;;
45011;SDS011;63444;48.148;11.542;2023-06-14T12:02:18;4.93;;;3.10;;
45011;SDS011;63444;48.148;11.542;2023-06-14T12:04:46;3.70;;;2.85;;
45011;SDS011;63444;48.148;11.542;2023-06-14T12:07:16;4.68;;;2.75;;
45011;SDS011;63444;48.148;11.542;2023-06-14T12:12:22;3.78;;;2.88;;
45011;SDS011;63444;48.148;11.542;2023-06-14T12:14:50;3.22;;;2.60;;
45011;SDS011;63444;48.148;11.542;2023-06-14T12:17:17;2.92;;;2.60;;
45011;SDS011;63444;48.148;11.542;2023-06-14T12:19:44;4.82;;;2.85;;
45011;SDS011;63444;48.148;11.542;2023-06-14T12:22:11;5.47;;;2.70;;
45011;SDS011;63444;48.148;11.542;2023-06-14T12:24:38;2.95;;;2.65;;
45011;SDS011;63444;48.148;11.542;2023-06-14T12:27:04;2.70;;;2.38;;
45011;SDS011;63444;48.148;11.542;2023-06-14T12:29:30;4.95;;;2.85;;
45011;SDS011;63444;48.148;11.542;2023-06-14T12:31:57;5.03;;;3.28;;
45011;SDS011;63444;48.148;11.542;2023-06-14T12:34:23;3.03;;;2.70;;
45011;SDS011;63444;48.148;11.542;2023-06-14T12:36:49;5.03;;;2.97;;
45011;SDS011;63444;48.148;11.542;2023-06-14T12:39:15;5.32;;;3.25;;
45011;SDS011;63444;48.148;11.542;2023-06-14T12:41:41;4.57;;;3.53;;
45011;SDS011;63444;48.148;11.542;2023-06-14T12:44:08;5.28;;;2.85;;
45011;SDS011;63444;48.148;11.542;2023-06-14T12:46:33;4.63;;;2.85;;
45011;SDS011;63444;48.148;11.542;2023-06-14T12:49:00;3.92;;;2.92;;
45011;SDS011;63444;48.148;11.542;2023-06-14T12:51:25;3.55;;;2.60;;
45011;SDS011;63444;48.148;11.542;2023-06-14T12:53:51;4.07;;;2.90;;
45011;SDS011;63444;48.148;11.542;2023-06-14T12:56:17;5.15;;;2.72;;
45011;SDS011;63444;48.148;11.542;2023-06-14T12:58:43;4.63;;;2.70;;
45011;SDS011;63444;48.148;11.542;2023-06-14T13:01:09;5.20;;;3.00;;
45011;SDS011;63444;48.148;11.542;2023-06-14T13:03:34;3.75;;;2.80;;
45011;SDS011;63444;48.148;11.542;2023-06-14T13:06:01;7.32;;;2.72;;
45011;SDS011;63444;48.148;11.542;2023-06-14T13:08:29;4.03;;;2.67;;
45011;SDS011;63444;48.148;11.542;2023-06-14T13:10:55;3.05;;;2.75;;
45011;SDS011;63444;48.148;11.542;2023-06-14T13:13:21;3.47;;;2.90;;
45011;SDS011;63444;48.148;11.542;2023-06-14T13:15:46;7.40;;;2.80;;
45011;SDS011;63444;48.148;11.542;2023-06-14T13:18:14;5.13;;;2.70;;
45011;SDS011;63444;48.148;11.542;2023-06-14T13:20:39;3.97;;;2.90;;
45011;SDS011;63444;48.148;11.542;2023-06-14T13:23:05;4.28;;;2.78;;
45011;SDS011;63444;48.148;11.542;2023-06-14T13:25:32;2.95;;;2.70;;
45011;SDS011;63444;48.148;11.542;2023-06-14T13:28:02;7.07;;;2.92;;
45011;SDS011;63444;48.148;11.542;2023-06-14T13:30:31;7.05;;;2.80;;
45011;SDS011;63444;48.148;11.542;2023-06-14T13:32:58;5.15;;;2.63;;
45011;SDS011;63444;48.148;11.542;2023-06-14T13:35:24;3.40;;;2.63;;
45011;SDS011;63444;48.148;11.542;2023-06-14T13:37:50;5.20;;;2.60;;
45011;SDS011;63444;48.148;11.542;2023-06-14T13:40:16;3.95;;;2.65;;
45011;SDS011;63444;48.148;11.542;2023-06-14T13:42:42;4.65;;;2.83;;
45011;SDS011;63444;48.148;11.542;2023-06-14T13:45:10;3.05;;;2.60;;
45011;SDS011;63444;48.148;11.542;2023-06-14T13:47:37;3.78;;;2.65;;
45011;SDS011;63444;48.148;11.542;2023-06-14T13:50:04;4.70;;;2.90;;
45011;SDS011;63444;48.148;11.542;2023-06-14T13:52:30;4.28;;;2.80;;
45011;SDS011;63444;48.148;11.542;2023-06-14T13:54:57;6.22;;;2.75;;
45011;SDS011;63444;48.148;11.542;2023-06-14T13:57:22;3.53;;;2.53;;
45011;SDS011;63444;48.148;11.542;2023-06-14T13:59:48;4.88;;;2.80;;
45011;SDS011;63444;48.148;11.542;2023-06-14T14:02:14;2.78;;;2.47;;
45011;SDS011;63444;48.148;11.542;2023-06-14T14:04:40;3.30;;;2.80;;
45011;SDS011;63444;48.148;11.542;2023-06-14T14:07:06;3.55;;;2.38;;
45011;SDS011;63444;48.148;11.542;2023-06-14T14:09:33;3.17;;;2.88;;
45011;SDS011;63444;48.148;11.542;2023-06-14T14:11:59;2.55;;;2.33;;
45011;SDS011;63444;48.148;11.542;2023-06-14T14:14:30;5.18;;;2.78;;
45011;SDS011;63444;48.148;11.542;2023-06-14T14:16:57;4.40;;;2.40;;
45011;SDS011;63444;48.148;11.542;2023-06-14T14:19:23;2.85;;;2.60;;
45011;SDS011;63444;48.148;11.542;2023-06-14T14:21:49;4.85;;;2.80;;
45011;SDS011;63444;48.148;11.542;2023-06-14T14:24:15;2.53;;;2.33;;
45011;SDS011;63444;48.148;11.542;2023-06-14T14:26:41;2.92;;;2.63;;
45011;SDS011;63444;48.148;11.542;2023-06-14T14:29:08;3.67;;;2.63;;
45011;SDS011;63444;48.148;11.542;2023-06-14T14:31:36;5.53;;;2.67;;
45011;SDS011;63444;48.148;11.542;2023-06-14T14:34:02;3.08;;;2.40;;
45011;SDS011;63444;48.148;11.542;2023-06-14T14:36:27;4.88;;;2.97;;
45011;SDS011;63444;48.148;11.542;2023-06-14T14:38:53;2.80;;;2.50;;
45011;SDS011;63444;48.148;11.542;2023-06-14T14:41:18;7.05;;;2.53;;
45011;SDS011;63444;48.148;11.542;2023-06-14T14:43:44;3.95;;;3.03;;
45011;SDS011;63444;48.148;11.542;2023-06-14T14:46:09;4.80;;;2.60;;